sensor_id;sensor_type;location;lat;lon;timestamp;P1;durP1;ratioP1;P2;durP2;ratioP2
14675;SDS011;7426;52.524;13.460;2022-09-09T00:00:16;6.574999999999999;;;5.3;;
14675;SDS011;7426;52.524;13.460;2022-09-09T00:02:17;4.4125;;;3.9;;
14675;SDS011;7426;52.524;13.460;2022-09-09T00:04:16;3.7875;;;3.4125;;
14675;SDS011;7426;52.524;13.460;2022-09-09T00:06:16;7.2875;;;6.15;;
14675;SDS011;7426;52.524;13.460;2022-09-09T00:08:15;4.2749999999999995;;;3.7874999999999996;;
14675;SDS011;7426;52.524;13.460;2022-09-09T00:10:16;4.0249999999999995;;;3.6625;;
14675;SDS011;7426;52.524;13.460;2022-09-09T00:12:15;8.8;;;4.4750000000000005;;
14675;SDS011;7426;52.524;13.460;2022-09-09T00:14:17;5.45;;;3.9375;;
14675;SDS011;7426;52.524;13.460;2022-09-09T00:16:17;5.7;;;5.2;;
14675;SDS011;7426;52.524;13.460;2022-09-09T00:18:17;5.0625;;;4.15;;
14675;SDS011;7426;52.524;13.460;2022-09-09T00:20:16;4.7749999999999995;;;3.775;;
14675;SDS011;7426;52.524;13.460;2022-09-09T00:22:15;4.9125;;;4.4875;;
14675;SDS011;7426;52.524;13.460;2022-09-09T00:24:22;9.6875;;;6.025;;
14675;SDS011;7426;52.524;13.460;2022-09-09T00:26:16;7.05;;;4.5;;
14675;SDS011;7426;52.524;13.460;2022-09-09T00:28:16;4.987500000000001;;;4.375;;
14675;SDS011;7426;52.524;13.460;2022-09-09T00:30:15;5.4;;;4.8625;;
14675;SDS011;7426;52.524;13.460;2022-09-09T00:32:15;5.15;;;4.5625;;
14675;SDS011;7426;52.524;13.460;2022-09-09T00:34:16;4.75;;;4.1125;;
14675;SDS011;7426;52.524;13.460;2022-09-09T00:36:17;6.862500000000001;;;4.4875;;
14675;SDS011;7426;52.524;13.460;2022-09-09T00:38:15;5.5249999999999995;;;4.737500000000001;;
14675;SDS011;7426;52.524;13.460;2022-09-09T00:40:18;5.825;;;4.8375;;
14675;SDS011;7426;52.524;13.460;2022-09-09T00:42:15;4.85;;;4.3;;
14675;SDS011;7426;52.524;13.460;2022-09-09T00:44:18;5.225;;;4.699999999999999;;
14675;SDS011;7426;52.524;13.460;2022-09-09T00:46:36;4.9;;;4.475;;
14675;SDS011;7426;52.524;13.460;2022-09-09T00:48:16;5.362500000000001;;;4.6375;;
14675;SDS011;7426;52.524;13.460;2022-09-09T00:50:17;4.825;;;4.3625;;
14675;SDS011;7426;52.524;13.460;2022-09-09T00:52:22;4.8;;;4.4125;;
14675;SDS011;7426;52.524;13.460;2022-09-09T00:54:19;5.475;;;4.9750000000000005;;
14675;SDS011;7426;52.524;13.460;2022-09-09T00:56:14;6.525;;;4.9375;;
14675;SDS011;7426;52.524;13.460;2022-09-09T00:58:14;7.325;;;5.7125;;
14675;SDS011;7426;52.524;13.460;2022-09-09T01:00:16;5.7625;;;4.675000000000001;;
14675;SDS011;7426;52.524;13.460;2022-09-09T01:02:25;4.362500000000001;;;3.825;;
14675;SDS011;7426;52.524;13.460;2022-09-09T01:04:16;5.0375;;;4.6125;;
14675;SDS011;7426;52.524;13.460;2022-09-09T01:06:16;10.812499999999998;;;4.35;;
14675;SDS011;7426;52.524;13.460;2022-09-09T01:08:20;5.299999999999999;;;4.55;;
14675;SDS011;7426;52.524;13.460;2022-09-09T01:10:17;5.2375;;;3.8374999999999995;;
14675;SDS011;7426;52.524;13.460;2022-09-09T01:12:15;4.9750000000000005;;;4.175;;
14675;SDS011;7426;52.524;13.460;2022-09-09T01:14:18;23.2375;;;4.875;;
14675;SDS011;7426;52.524;13.460;2022-09-09T01:16:14;5.475;;;4.625;;
14675;SDS011;7426;52.524;13.460;2022-09-09T01:18:15;6.025;;;4.675;;
14675;SDS011;7426;52.524;13.460;2022-09-09T01:20:18;4.6125;;;4.1875;;
14675;SDS011;7426;52.524;13.460;2022-09-09T01:22:17;5.1375;;;4.7125;;
14675;SDS011;7426;52.524;13.460;2022-09-09T01:24:17;4.85;;;4.4625;;
14675;SDS011;7426;52.524;13.460;2022-09-09T01:26:17;3.9875;;;3.4875;;
14675;SDS011;7426;52.524;13.460;2022-09-09T01:28:16;4.1875;;;3.8;;
14675;SDS011;7426;52.524;13.460;2022-09-09T01:30:15;9.1125;;;4.4125;;
14675;SDS011;7426;52.524;13.460;2022-09-09T01:32:48;3.9875000000000003;;;3.3875;;
14675;SDS011;7426;52.524;13.460;2022-09-09T01:34:15;4.225;;;3.8625;;
14675;SDS011;7426;52.524;13.460;2022-09-09T01:36:17;7.300000000000001;;;4.4625;;
14675;SDS011;7426;52.524;13.460;2022-09-09T01:38:15;4.449999999999999;;;4.0625;;
14675;SDS011;7426;52.524;13.460;2022-09-09T01:40:14;4.075;;;3.3375;;
14675;SDS011;7426;52.524;13.460;2022-09-09T01:42:15;3.6999999999999997;;;3.375;;
14675;SDS011;7426;52.524;13.460;2022-09-09T01:44:14;5.987500000000001;;;3.4499999999999997;;
14675;SDS011;7426;52.524;13.460;2022-09-09T01:46:14;7.125;;;4.2125;;
14675;SDS011;7426;52.524;13.460;2022-09-09T01:48:14;5.800000000000001;;;3.375;;
14675;SDS011;7426;52.524;13.460;2022-09-09T01:50:15;5.525;;;3.55;;
14675;SDS011;7426;52.524;13.460;2022-09-09T01:52:14;5.275;;;4.1499999999999995;;
14675;SDS011;7426;52.524;13.460;2022-09-09T01:54:15;5.699999999999999;;;4.75;;
14675;SDS011;7426;52.524;13.460;2022-09-09T01:56:18;4.5875;;;4.175;;
14675;SDS011;7426;52.524;13.460;2022-09-09T01:58:17;7.637499999999999;;;4.9125;;
14675;SDS011;7426;52.524;13.460;2022-09-09T02:00:14;7.4625;;;4.7625;;
14675;SDS011;7426;52.524;13.460;2022-09-09T02:02:16;8.4375;;;4.6;;
14675;SDS011;7426;52.524;13.460;2022-09-09T02:04:18;4.3375;;;3.3375;;
14675;SDS011;7426;52.524;13.460;2022-09-09T02:06:17;4.3625;;;3.975;;
14675;SDS011;7426;52.524;13.460;2022-09-09T02:08:15;4.4875;;;4.075;;
14675;SDS011;7426;52.524;13.460;2022-09-09T02:10:16;5.8374999999999995;;;4.612500000000001;;
14675;SDS011;7426;52.524;13.460;2022-09-09T02:12:14;4.775;;;3.9875000000000003;;
14675;SDS011;7426;52.524;13.460;2022-09-09T02:14:23;4.675;;;3.8875;;
14675;SDS011;7426;52.524;13.460;2022-09-09T02:16:16;4.425;;;4.05;;
14675;SDS011;7426;52.524;13.460;2022-09-09T02:18:15;4.15;;;3.675;;
14675;SDS011;7426;52.524;13.460;2022-09-09T02:20:14;5.6375;;;4.9125;;
14675;SDS011;7426;52.524;13.460;2022-09-09T02:22:15;14.1375;;;4.3125;;
14675;SDS011;7426;52.524;13.460;2022-09-09T02:24:14;4.0625;;;3.6500000000000004;;
14675;SDS011;7426;52.524;13.460;2022-09-09T02:26:19;5.575;;;4.199999999999999;;
14675;SDS011;7426;52.524;13.460;2022-09-09T02:28:14;6.0875;;;5.3125;;
14675;SDS011;7426;52.524;13.460;2022-09-09T02:30:15;4.5874999999999995;;;4.1625;;
14675;SDS011;7426;52.524;13.460;2022-09-09T02:32:15;16.2;;;5.3625;;
14675;SDS011;7426;52.524;13.460;2022-09-09T02:34:14;4.2875;;;3.9;;
14675;SDS011;7426;52.524;13.460;2022-09-09T02:36:16;3.575;;;3.2375;;
14675;SDS011;7426;52.524;13.460;2022-09-09T02:38:14;4.875;;;3.9875000000000003;;
14675;SDS011;7426;52.524;13.460;2022-09-09T02:40:15;5.6625;;;4.45;;
14675;SDS011;7426;52.524;13.460;2022-09-09T02:42:15;3.6750000000000003;;;3.3125;;
14675;SDS011;7426;52.524;13.460;2022-09-09T02:44:16;4.5875;;;3.5625000000000004;;
14675;SDS011;7426;52.524;13.460;2022-09-09T02:46:18;5.4125;;;4.125;;
14675;SDS011;7426;52.524;13.460;2022-09-09T02:48:14;5.65;;;4.275;;
14675;SDS011;7426;52.524;13.460;2022-09-09T02:50:15;3.9875;;;3.2125000000000004;;
14675;SDS011;7426;52.524;13.460;2022-09-09T02:52:17;4.7625;;;4.375;;
14675;SDS011;7426;52.524;13.460;2022-09-09T02:54:16;5.775;;;4.4;;
14675;SDS011;7426;52.524;13.460;2022-09-09T02:56:14;3.6500000000000004;;;3.2375;;
14675;SDS011;7426;52.524;13.460;2022-09-09T02:58:17;6.5875;;;4.1625;;
14675;SDS011;7426;52.524;13.460;2022-09-09T03:00:14;6.4625;;;3.475;;
14675;SDS011;7426;52.524;13.460;2022-09-09T03:02:14;8.8125;;;3.8625000000000003;;
14675;SDS011;7426;52.524;13.460;2022-09-09T03:04:14;3.9124999999999996;;;3.2875;;
14675;SDS011;7426;52.524;13.460;2022-09-09T03:06:14;4.25;;;3.8625000000000003;;
14675;SDS011;7426;52.524;13.460;2022-09-09T03:08:14;3.75;;;3.3625;;
14675;SDS011;7426;52.524;13.460;2022-09-09T03:10:14;4.375;;;4.0;;
14675;SDS011;7426;52.524;13.460;2022-09-09T03:12:14;5.9875;;;4.0875;;
14675;SDS011;7426;52.524;13.460;2022-09-09T03:14:14;4.1375;;;3.8;;
14675;SDS011;7426;52.524;13.460;2022-09-09T03:16:15;5.225;;;3.8875;;
14675;SDS011;7426;52.524;13.460;2022-09-09T03:18:14;11.525;;;3.6875;;
14675;SDS011;7426;52.524;13.460;2022-09-09T03:20:14;4.6;;;3.275;;
14675;SDS011;7426;52.524;13.460;2022-09-09T03:22:14;4.525;;;3.9125;;
14675;SDS011;7426;52.524;13.460;2022-09-09T03:24:14;7.5;;;4.5375;;
14675;SDS011;7426;52.524;13.460;2022-09-09T03:26:15;9.8625;;;3.8125;;
14675;SDS011;7426;52.524;13.460;2022-09-09T03:28:15;4.275;;;3.8125;;
14675;SDS011;7426;52.524;13.460;2022-09-09T03:30:15;4.012499999999999;;;3.6624999999999996;;
14675;SDS011;7426;52.524;13.460;2022-09-09T03:32:18;6.2875;;;4.6125;;
14675;SDS011;7426;52.524;13.460;2022-09-09T03:34:14;5.0125;;;4.2;;
14675;SDS011;7426;52.524;13.460;2022-09-09T03:36:14;4.275;;;3.9250000000000003;;
14675;SDS011;7426;52.524;13.460;2022-09-09T03:38:14;4.6625000000000005;;;4.0875;;
14675;SDS011;7426;52.524;13.460;2022-09-09T03:40:15;5.1625;;;4.575;;
14675;SDS011;7426;52.524;13.460;2022-09-09T03:42:14;6.0875;;;4.325;;
14675;SDS011;7426;52.524;13.460;2022-09-09T03:44:14;8.9;;;3.725;;
14675;SDS011;7426;52.524;13.460;2022-09-09T03:46:14;5.012500000000001;;;3.925;;
14675;SDS011;7426;52.524;13.460;2022-09-09T03:48:15;4.5875;;;3.3;;
14675;SDS011;7426;52.524;13.460;2022-09-09T03:50:15;7.637500000000001;;;4.1;;
14675;SDS011;7426;52.524;13.460;2022-09-09T03:52:15;3.8499999999999996;;;3.15;;
14675;SDS011;7426;52.524;13.460;2022-09-09T03:54:14;5.6000000000000005;;;2.8625;;
14675;SDS011;7426;52.524;13.460;2022-09-09T03:56:15;5.425000000000001;;;3.6125000000000003;;
14675;SDS011;7426;52.524;13.460;2022-09-09T03:58:15;3.625;;;2.8375000000000004;;
14675;SDS011;7426;52.524;13.460;2022-09-09T04:00:14;5.4875;;;3.125;;
14675;SDS011;7426;52.524;13.460;2022-09-09T04:02:15;5.949999999999999;;;3.7625;;
14675;SDS011;7426;52.524;13.460;2022-09-09T04:04:14;4.6625;;;3.8875;;
14675;SDS011;7426;52.524;13.460;2022-09-09T04:06:14;3.8125;;;3.4250000000000003;;
14675;SDS011;7426;52.524;13.460;2022-09-09T04:08:14;3.7750000000000004;;;3.1125;;
14675;SDS011;7426;52.524;13.460;2022-09-09T04:10:15;6.6375;;;3.15;;
14675;SDS011;7426;52.524;13.460;2022-09-09T04:12:14;8.2375;;;3.925;;
14675;SDS011;7426;52.524;13.460;2022-09-09T04:14:14;6.225;;;3.6374999999999997;;
14675;SDS011;7426;52.524;13.460;2022-09-09T04:16:14;3.375;;;2.9124999999999996;;
14675;SDS011;7426;52.524;13.460;2022-09-09T04:18:14;3.5375;;;2.5374999999999996;;
14675;SDS011;7426;52.524;13.460;2022-09-09T04:20:14;3.7;;;3.35;;
14675;SDS011;7426;52.524;13.460;2022-09-09T04:22:14;4.4;;;3.0875;;
14675;SDS011;7426;52.524;13.460;2022-09-09T04:24:16;4.6;;;3.575;;
14675;SDS011;7426;52.524;13.460;2022-09-09T04:26:14;3.375;;;2.925;;
14675;SDS011;7426;52.524;13.460;2022-09-09T04:28:14;3.7249999999999996;;;2.95;;
14675;SDS011;7426;52.524;13.460;2022-09-09T04:30:14;6.3875;;;3.7;;
14675;SDS011;7426;52.524;13.460;2022-09-09T04:32:15;3.45;;;2.9125;;
14675;SDS011;7426;52.524;13.460;2022-09-09T04:34:14;6.0;;;4.1;;
14675;SDS011;7426;52.524;13.460;2022-09-09T04:36:14;6.125;;;3.7125000000000004;;
14675;SDS011;7426;52.524;13.460;2022-09-09T04:38:14;6.637499999999999;;;4.1875;;
14675;SDS011;7426;52.524;13.460;2022-09-09T04:40:15;6.0;;;4.475;;
14675;SDS011;7426;52.524;13.460;2022-09-09T04:42:14;8.287500000000001;;;4.125;;
14675;SDS011;7426;52.524;13.460;2022-09-09T04:44:14;6.5625;;;4.6625;;
14675;SDS011;7426;52.524;13.460;2022-09-09T04:46:15;4.425000000000001;;;3.0249999999999995;;
14675;SDS011;7426;52.524;13.460;2022-09-09T04:48:14;7.699999999999999;;;4.3125;;
14675;SDS011;7426;52.524;13.460;2022-09-09T04:50:15;5.8125;;;4.525;;
14675;SDS011;7426;52.524;13.460;2022-09-09T04:52:17;3.9;;;3.4875;;
14675;SDS011;7426;52.524;13.460;2022-09-09T04:54:14;5.65;;;3.625;;
14675;SDS011;7426;52.524;13.460;2022-09-09T04:56:14;4.85;;;3.9375;;
14675;SDS011;7426;52.524;13.460;2022-09-09T04:58:14;4.637499999999999;;;3.425;;
14675;SDS011;7426;52.524;13.460;2022-09-09T05:00:15;7.2875000000000005;;;3.65;;
14675;SDS011;7426;52.524;13.460;2022-09-09T05:02:14;7.699999999999999;;;4.0;;
14675;SDS011;7426;52.524;13.460;2022-09-09T05:04:15;4.6125;;;3.475;;
14675;SDS011;7426;52.524;13.460;2022-09-09T05:06:15;5.937500000000001;;;2.8625000000000003;;
14675;SDS011;7426;52.524;13.460;2022-09-09T05:08:15;3.3375;;;2.6125000000000003;;
14675;SDS011;7426;52.524;13.460;2022-09-09T05:10:16;5.1375;;;3.3125;;
14675;SDS011;7426;52.524;13.460;2022-09-09T05:12:15;7.35;;;3.4375;;
14675;SDS011;7426;52.524;13.460;2022-09-09T05:14:14;3.4875;;;2.5125;;
14675;SDS011;7426;52.524;13.460;2022-09-09T05:16:14;5.125;;;2.9875;;
14675;SDS011;7426;52.524;13.460;2022-09-09T05:18:14;4.025;;;3.0625;;
14675;SDS011;7426;52.524;13.460;2022-09-09T05:20:14;4.5375;;;3.4875;;
14675;SDS011;7426;52.524;13.460;2022-09-09T05:22:17;3.5375;;;3.2;;
14675;SDS011;7426;52.524;13.460;2022-09-09T05:24:14;6.95;;;3.2125;;
14675;SDS011;7426;52.524;13.460;2022-09-09T05:26:14;3.425;;;2.525;;
14675;SDS011;7426;52.524;13.460;2022-09-09T05:28:14;3.9125;;;2.4375;;
14675;SDS011;7426;52.524;13.460;2022-09-09T05:30:14;4.7875;;;3.1125;;
14675;SDS011;7426;52.524;13.460;2022-09-09T05:32:16;6.262499999999999;;;2.6;;
14675;SDS011;7426;52.524;13.460;2022-09-09T05:34:14;4.7125;;;3.0375;;
14675;SDS011;7426;52.524;13.460;2022-09-09T05:36:15;3.1500000000000004;;;2.5125;;
14675;SDS011;7426;52.524;13.460;2022-09-09T05:38:14;4.887500000000001;;;3.225;;
14675;SDS011;7426;52.524;13.460;2022-09-09T05:40:14;3.5375;;;2.8625000000000003;;
14675;SDS011;7426;52.524;13.460;2022-09-09T05:42:15;8.849999999999998;;;3.125;;
14675;SDS011;7426;52.524;13.460;2022-09-09T05:44:14;3.875;;;3.325;;
14675;SDS011;7426;52.524;13.460;2022-09-09T05:46:14;4.9125;;;2.6;;
14675;SDS011;7426;52.524;13.460;2022-09-09T05:48:15;4.525;;;2.9375;;
14675;SDS011;7426;52.524;13.460;2022-09-09T05:50:15;4.275;;;2.925;;
14675;SDS011;7426;52.524;13.460;2022-09-09T05:52:14;3.2874999999999996;;;2.825;;
14675;SDS011;7426;52.524;13.460;2022-09-09T05:54:15;7.6625;;;2.625;;
14675;SDS011;7426;52.524;13.460;2022-09-09T05:56:16;7.737500000000001;;;2.8875;;
14675;SDS011;7426;52.524;13.460;2022-09-09T05:58:16;5.3125;;;3.0;;
14675;SDS011;7426;52.524;13.460;2022-09-09T06:00:15;7.3500000000000005;;;3.975;;
14675;SDS011;7426;52.524;13.460;2022-09-09T06:02:14;6.475;;;3.025;;
14675;SDS011;7426;52.524;13.460;2022-09-09T06:04:15;6.8875;;;3.4;;
14675;SDS011;7426;52.524;13.460;2022-09-09T06:06:15;8.0125;;;3.025;;
14675;SDS011;7426;52.524;13.460;2022-09-09T06:08:14;4.0875;;;2.3875;;
14675;SDS011;7426;52.524;13.460;2022-09-09T06:10:14;7.1875;;;3.2125000000000004;;
14675;SDS011;7426;52.524;13.460;2022-09-09T06:12:14;4.8875;;;2.4749999999999996;;
14675;SDS011;7426;52.524;13.460;2022-09-09T06:14:15;5.262499999999999;;;2.6125;;
14675;SDS011;7426;52.524;13.460;2022-09-09T06:16:15;14.325;;;3.1625;;
14675;SDS011;7426;52.524;13.460;2022-09-09T06:18:14;5.0875;;;2.85;;
14675;SDS011;7426;52.524;13.460;2022-09-09T06:20:14;6.125;;;2.8125;;
14675;SDS011;7426;52.524;13.460;2022-09-09T06:22:14;7.85;;;2.7;;
14675;SDS011;7426;52.524;13.460;2022-09-09T06:24:17;5.237500000000001;;;2.475;;
14675;SDS011;7426;52.524;13.460;2022-09-09T06:26:15;3.15;;;2.0125;;
14675;SDS011;7426;52.524;13.460;2022-09-09T06:28:14;3.825;;;2.7125;;
14675;SDS011;7426;52.524;13.460;2022-09-09T06:30:14;3.5625;;;2.0125;;
14675;SDS011;7426;52.524;13.460;2022-09-09T06:32:14;3.05;;;1.9125;;
14675;SDS011;7426;52.524;13.460;2022-09-09T06:34:14;3.075;;;2.4125;;
14675;SDS011;7426;52.524;13.460;2022-09-09T06:36:15;4.7;;;2.0;;
14675;SDS011;7426;52.524;13.460;2022-09-09T06:38:14;5.437500000000001;;;1.6375;;
14675;SDS011;7426;52.524;13.460;2022-09-09T06:40:15;3.6500000000000004;;;2.575;;
14675;SDS011;7426;52.524;13.460;2022-09-09T06:42:15;4.2875000000000005;;;2.6;;
14675;SDS011;7426;52.524;13.460;2022-09-09T06:44:15;3.35;;;2.0374999999999996;;
14675;SDS011;7426;52.524;13.460;2022-09-09T06:46:15;2.8874999999999997;;;2.05;;
14675;SDS011;7426;52.524;13.460;2022-09-09T06:48:14;4.3375;;;2.6;;
14675;SDS011;7426;52.524;13.460;2022-09-09T06:50:14;3.2249999999999996;;;2.1875;;
14675;SDS011;7426;52.524;13.460;2022-09-09T06:52:14;2.5625;;;2.075;;
14675;SDS011;7426;52.524;13.460;2022-09-09T06:54:14;4.45;;;2.1;;
14675;SDS011;7426;52.524;13.460;2022-09-09T06:56:18;4.1;;;2.0125;;
14675;SDS011;7426;52.524;13.460;2022-09-09T06:58:14;3.3125;;;1.8875;;
14675;SDS011;7426;52.524;13.460;2022-09-09T07:00:15;5.550000000000001;;;2.7249999999999996;;
14675;SDS011;7426;52.524;13.460;2022-09-09T07:02:15;5.3875;;;2.4;;
14675;SDS011;7426;52.524;13.460;2022-09-09T07:04:14;7.975;;;2.3125;;
14675;SDS011;7426;52.524;13.460;2022-09-09T07:06:15;3.5875;;;2.3874999999999997;;
14675;SDS011;7426;52.524;13.460;2022-09-09T07:08:14;5.4625;;;1.725;;
14675;SDS011;7426;52.524;13.460;2022-09-09T07:10:14;11.4625;;;1.8375;;
14675;SDS011;7426;52.524;13.460;2022-09-09T07:12:15;6.1875;;;2.925;;
14675;SDS011;7426;52.524;13.460;2022-09-09T07:14:14;4.2875;;;2.1625;;
14675;SDS011;7426;52.524;13.460;2022-09-09T07:16:15;3.75;;;2.6875;;
14675;SDS011;7426;52.524;13.460;2022-09-09T07:18:14;7.2625;;;2.475;;
14675;SDS011;7426;52.524;13.460;2022-09-09T07:20:15;4.075;;;2.3874999999999997;;
14675;SDS011;7426;52.524;13.460;2022-09-09T07:22:16;5.625;;;2.4875;;
14675;SDS011;7426;52.524;13.460;2022-09-09T07:24:14;12.7625;;;2.525;;
14675;SDS011;7426;52.524;13.460;2022-09-09T07:26:16;2.8625;;;1.7875;;
14675;SDS011;7426;52.524;13.460;2022-09-09T07:28:14;9.112499999999999;;;2.775;;
14675;SDS011;7426;52.524;13.460;2022-09-09T07:30:14;3.1500000000000004;;;2.1625;;
14675;SDS011;7426;52.524;13.460;2022-09-09T07:32:15;5.1375;;;2.5375;;
14675;SDS011;7426;52.524;13.460;2022-09-09T07:34:14;5.8375;;;2.175;;
14675;SDS011;7426;52.524;13.460;2022-09-09T07:36:15;8.9375;;;2.0374999999999996;;
14675;SDS011;7426;52.524;13.460;2022-09-09T07:38:15;4.375;;;2.325;;
14675;SDS011;7426;52.524;13.460;2022-09-09T07:40:15;3.25;;;2.125;;
14675;SDS011;7426;52.524;13.460;2022-09-09T07:42:15;7.199999999999999;;;2.2750000000000004;;
14675;SDS011;7426;52.524;13.460;2022-09-09T07:44:14;4.3125;;;1.6749999999999998;;
14675;SDS011;7426;52.524;13.460;2022-09-09T07:46:16;3.4749999999999996;;;1.95;;
14675;SDS011;7426;52.524;13.460;2022-09-09T07:48:14;3.4375;;;2.1125;;
14675;SDS011;7426;52.524;13.460;2022-09-09T07:50:15;4.45;;;1.4625;;
14675;SDS011;7426;52.524;13.460;2022-09-09T07:52:14;7.6625;;;3.1875;;
14675;SDS011;7426;52.524;13.460;2022-09-09T07:54:15;3.3874999999999997;;;1.8125;;
14675;SDS011;7426;52.524;13.460;2022-09-09T07:56:14;3.4125;;;2.15;;
14675;SDS011;7426;52.524;13.460;2022-09-09T07:58:14;3.1624999999999996;;;2.0374999999999996;;
14675;SDS011;7426;52.524;13.460;2022-09-09T08:00:15;2.8;;;1.5625;;
14675;SDS011;7426;52.524;13.460;2022-09-09T08:02:14;3.8;;;1.6125;;
14675;SDS011;7426;52.524;13.460;2022-09-09T08:04:16;6.875;;;1.9;;
14675;SDS011;7426;52.524;13.460;2022-09-09T08:06:15;2.1625;;;1.4375;;
14675;SDS011;7426;52.524;13.460;2022-09-09T08:08:15;2.55;;;1.2000000000000002;;
14675;SDS011;7426;52.524;13.460;2022-09-09T08:10:16;4.9875;;;1.9;;
14675;SDS011;7426;52.524;13.460;2022-09-09T08:12:14;3.1375;;;1.6;;
14675;SDS011;7426;52.524;13.460;2022-09-09T08:14:14;9.575;;;2.075;;
14675;SDS011;7426;52.524;13.460;2022-09-09T08:16:14;3.0749999999999997;;;1.5;;
14675;SDS011;7426;52.524;13.460;2022-09-09T08:18:14;2.925;;;1.35;;
14675;SDS011;7426;52.524;13.460;2022-09-09T08:20:14;6.9125;;;3.4250000000000003;;
14675;SDS011;7426;52.524;13.460;2022-09-09T08:22:14;4.5;;;1.9;;
14675;SDS011;7426;52.524;13.460;2022-09-09T08:24:15;3.8125000000000004;;;2.3625000000000003;;
14675;SDS011;7426;52.524;13.460;2022-09-09T08:26:15;3.7125;;;1.95;;
14675;SDS011;7426;52.524;13.460;2022-09-09T08:28:14;4.6875;;;1.85;;
14675;SDS011;7426;52.524;13.460;2022-09-09T08:30:14;4.425000000000001;;;2.075;;
14675;SDS011;7426;52.524;13.460;2022-09-09T08:32:14;4.5875;;;1.9000000000000001;;
14675;SDS011;7426;52.524;13.460;2022-09-09T08:34:14;4.1;;;1.9375;;
14675;SDS011;7426;52.524;13.460;2022-09-09T08:36:15;4.4;;;1.525;;
14675;SDS011;7426;52.524;13.460;2022-09-09T08:38:14;7.7125;;;2.0625;;
14675;SDS011;7426;52.524;13.460;2022-09-09T08:40:17;2.9250000000000003;;;1.6875;;
14675;SDS011;7426;52.524;13.460;2022-09-09T08:42:17;4.175;;;1.8625;;
14675;SDS011;7426;52.524;13.460;2022-09-09T08:44:16;2.25;;;1.45;;
14675;SDS011;7426;52.524;13.460;2022-09-09T08:46:15;2.1;;;1.3250000000000002;;
14675;SDS011;7426;52.524;13.460;2022-09-09T08:48:17;2.9875;;;1.65;;
14675;SDS011;7426;52.524;13.460;2022-09-09T08:50:17;5.1375;;;1.6;;
14675;SDS011;7426;52.524;13.460;2022-09-09T08:52:16;7.8;;;2.175;;
14675;SDS011;7426;52.524;13.460;2022-09-09T08:54:14;4.574999999999999;;;2.1624999999999996;;
14675;SDS011;7426;52.524;13.460;2022-09-09T08:56:16;2.8875;;;1.5875;;
14675;SDS011;7426;52.524;13.460;2022-09-09T08:58:15;8.1;;;1.8625;;
14675;SDS011;7426;52.524;13.460;2022-09-09T09:00:14;2.2874999999999996;;;1.525;;
14675;SDS011;7426;52.524;13.460;2022-09-09T09:02:15;5.8875;;;2.1375;;
14675;SDS011;7426;52.524;13.460;2022-09-09T09:04:19;14.8875;;;2.4000000000000004;;
14675;SDS011;7426;52.524;13.460;2022-09-09T09:06:20;6.5625;;;1.9;;
14675;SDS011;7426;52.524;13.460;2022-09-09T09:08:16;1.9875;;;1.5125;;
14675;SDS011;7426;52.524;13.460;2022-09-09T09:10:17;5.325;;;1.6;;
14675;SDS011;7426;52.524;13.460;2022-09-09T09:12:15;2.7874999999999996;;;1.6;;
14675;SDS011;7426;52.524;13.460;2022-09-09T09:14:15;3.7625;;;1.6124999999999998;;
14675;SDS011;7426;52.524;13.460;2022-09-09T09:16:17;3.725;;;1.75;;
14675;SDS011;7426;52.524;13.460;2022-09-09T09:18:15;8.225;;;2.0625;;
14675;SDS011;7426;52.524;13.460;2022-09-09T09:20:15;2.1375;;;1.75;;
14675;SDS011;7426;52.524;13.460;2022-09-09T09:22:17;2.925;;;1.45;;
14675;SDS011;7426;52.524;13.460;2022-09-09T09:24:16;4.2125;;;1.8250000000000002;;
14675;SDS011;7426;52.524;13.460;2022-09-09T09:26:14;11.5375;;;1.8125;;
14675;SDS011;7426;52.524;13.460;2022-09-09T09:28:17;3.1999999999999997;;;2.475;;
14675;SDS011;7426;52.524;13.460;2022-09-09T09:30:15;5.737499999999999;;;1.7000000000000002;;
14675;SDS011;7426;52.524;13.460;2022-09-09T09:32:14;6.9625;;;1.9375;;
14675;SDS011;7426;52.524;13.460;2022-09-09T09:34:14;2.075;;;1.2;;
14675;SDS011;7426;52.524;13.460;2022-09-09T09:36:15;3.325;;;1.6875;;
14675;SDS011;7426;52.524;13.460;2022-09-09T09:38:16;6.8875;;;2.1750000000000003;;
14675;SDS011;7426;52.524;13.460;2022-09-09T09:40:15;5.387499999999999;;;1.3624999999999998;;
14675;SDS011;7426;52.524;13.460;2022-09-09T09:42:15;4.55;;;1.4875000000000003;;
14675;SDS011;7426;52.524;13.460;2022-09-09T09:44:23;6.949999999999999;;;1.8624999999999998;;
14675;SDS011;7426;52.524;13.460;2022-09-09T09:46:19;6.55;;;1.7374999999999998;;
14675;SDS011;7426;52.524;13.460;2022-09-09T09:48:14;7.2875;;;1.7375;;
14675;SDS011;7426;52.524;13.460;2022-09-09T09:50:16;6.449999999999999;;;1.75;;
14675;SDS011;7426;52.524;13.460;2022-09-09T09:52:14;4.3625;;;1.0625;;
14675;SDS011;7426;52.524;13.460;2022-09-09T09:54:17;3.5500000000000003;;;1.35;;
14675;SDS011;7426;52.524;13.460;2022-09-09T09:56:15;8.0375;;;2.3375;;
14675;SDS011;7426;52.524;13.460;2022-09-09T09:58:15;5.575;;;1.9;;
14675;SDS011;7426;52.524;13.460;2022-09-09T10:00:15;2.65;;;1.1;;
14675;SDS011;7426;52.524;13.460;2022-09-09T10:02:15;4.225;;;1.75;;
14675;SDS011;7426;52.524;13.460;2022-09-09T10:04:16;4.550000000000001;;;1.7000000000000002;;
14675;SDS011;7426;52.524;13.460;2022-09-09T10:06:15;5.925;;;1.5875;;
14675;SDS011;7426;52.524;13.460;2022-09-09T10:08:14;13.1375;;;1.8125;;
14675;SDS011;7426;52.524;13.460;2022-09-09T10:10:18;2.7375;;;1.5499999999999998;;
14675;SDS011;7426;52.524;13.460;2022-09-09T10:12:16;2.675;;;1.5125;;
14675;SDS011;7426;52.524;13.460;2022-09-09T10:14:19;3.025;;;1.725;;
14675;SDS011;7426;52.524;13.460;2022-09-09T10:16:19;2.4375;;;1.4125;;
14675;SDS011;7426;52.524;13.460;2022-09-09T10:18:19;7.074999999999999;;;1.9124999999999999;;
14675;SDS011;7426;52.524;13.460;2022-09-09T10:20:17;2.2;;;1.475;;
14675;SDS011;7426;52.524;13.460;2022-09-09T10:22:18;3.925;;;2.25;;
14675;SDS011;7426;52.524;13.460;2022-09-09T10:24:19;5.675;;;2.3125;;
14675;SDS011;7426;52.524;13.460;2022-09-09T10:26:17;4.4125;;;1.4500000000000002;;
14675;SDS011;7426;52.524;13.460;2022-09-09T10:28:18;2.075;;;1.1875;;
14675;SDS011;7426;52.524;13.460;2022-09-09T10:30:15;7.837500000000001;;;2.65;;
14675;SDS011;7426;52.524;13.460;2022-09-09T10:32:21;4.675;;;1.4625;;
14675;SDS011;7426;52.524;13.460;2022-09-09T10:34:17;3.1875;;;1.2125;;
14675;SDS011;7426;52.524;13.460;2022-09-09T10:36:16;2.9499999999999997;;;1.4125;;
14675;SDS011;7426;52.524;13.460;2022-09-09T10:38:15;3.1500000000000004;;;1.65;;
14675;SDS011;7426;52.524;13.460;2022-09-09T10:40:19;5.612500000000001;;;1.4125;;
14675;SDS011;7426;52.524;13.460;2022-09-09T10:42:14;6.312500000000001;;;1.5625;;
14675;SDS011;7426;52.524;13.460;2022-09-09T10:44:18;5.6875;;;1.2125;;